createdAt,value
2018-03-20T00:02:06.777Z,2.00
2018-03-20T00:04:34.210Z,2.65
2018-03-20T00:07:01.625Z,2.60
2018-03-20T00:09:29.198Z,2.15
2018-03-20T00:11:56.621Z,2.55
2018-03-20T00:14:24.125Z,2.83
2018-03-20T00:16:51.695Z,2.10
2018-03-20T00:19:19.150Z,2.28
2018-03-20T00:21:46.620Z,1.97
2018-03-20T00:24:14.182Z,2.00
2018-03-20T00:26:41.643Z,2.10
2018-03-20T00:29:09.106Z,2.20
2018-03-20T00:31:36.675Z,3.05
2018-03-20T00:34:04.130Z,2.85
2018-03-20T00:36:31.599Z,1.65
2018-03-20T00:38:59.153Z,1.90
2018-03-20T00:41:26.618Z,2.12
2018-03-20T00:43:54.038Z,2.83
2018-03-20T00:46:21.646Z,2.55
2018-03-20T00:48:49.066Z,1.60
2018-03-20T00:51:16.477Z,1.97
2018-03-20T00:53:44.133Z,1.55
2018-03-20T00:56:11.554Z,2.17
2018-03-20T00:58:38.981Z,3.72
2018-03-20T01:01:06.429Z,2.37
2018-03-20T01:03:34.094Z,1.70
2018-03-20T01:06:01.548Z,1.75
2018-03-20T01:08:29.005Z,2.30
2018-03-20T01:10:56.457Z,1.75
2018-03-20T01:13:23.886Z,3.17
2018-03-20T01:15:51.296Z,1.50
2018-03-20T01:18:18.753Z,1.45
2018-03-20T01:20:46.169Z,2.03
2018-03-20T01:23:13.682Z,2.45
2018-03-20T01:25:41.150Z,2.40
2018-03-20T01:28:08.605Z,1.85
2018-03-20T01:30:36.067Z,2.17
2018-03-20T01:33:03.630Z,1.83
2018-03-20T01:35:31.049Z,1.60
2018-03-20T01:37:58.472Z,2.10
2018-03-20T01:40:26.070Z,1.77
2018-03-20T01:42:53.577Z,1.50
2018-03-20T01:45:21.006Z,1.50
2018-03-20T01:47:48.610Z,1.55
2018-03-20T01:50:16.029Z,2.00
2018-03-20T01:52:43.460Z,2.05
2018-03-20T01:55:11.102Z,2.47
2018-03-20T01:57:38.513Z,1.40
2018-03-20T02:00:06.026Z,1.50
2018-03-20T02:02:33.580Z,1.40
2018-03-20T02:05:01.001Z,1.73
2018-03-20T02:07:28.510Z,1.60
2018-03-20T02:09:56.075Z,1.35
2018-03-20T02:12:23.494Z,1.75
2018-03-20T02:14:50.993Z,1.58
2018-03-20T02:17:18.561Z,1.90
2018-03-20T02:19:45.991Z,1.83
2018-03-20T02:22:13.493Z,1.42
2018-03-20T02:24:41.056Z,1.33
2018-03-20T02:27:08.470Z,1.55
2018-03-20T02:29:35.889Z,1.37
2018-03-20T02:32:03.442Z,1.75
2018-03-20T02:34:30.897Z,1.35
2018-03-20T02:36:58.361Z,1.50
2018-03-20T02:39:25.932Z,1.35
2018-03-20T02:41:53.533Z,1.30
2018-03-20T02:44:20.954Z,1.95
2018-03-20T02:46:49.230Z,1.70
2018-03-20T02:49:16.703Z,1.83
2018-03-20T02:51:44.121Z,1.30
2018-03-20T02:54:11.726Z,1.40
2018-03-20T02:56:39.145Z,1.52
2018-03-20T02:59:06.650Z,1.40
2018-03-20T03:01:34.118Z,1.50
2018-03-20T03:04:01.534Z,1.70
2018-03-20T03:06:29.037Z,1.30
2018-03-20T03:08:56.578Z,1.83
2018-03-20T03:11:24.057Z,2.00
2018-03-20T03:13:51.530Z,1.27
2018-03-20T03:16:19.089Z,1.27
2018-03-20T03:18:46.554Z,1.25
2018-03-20T03:21:13.978Z,2.67
2018-03-20T03:23:41.426Z,1.30
2018-03-20T03:26:08.850Z,1.60
2018-03-20T03:28:36.270Z,1.13
2018-03-20T03:31:03.867Z,1.62
2018-03-20T03:33:31.321Z,1.45
2018-03-20T03:35:58.782Z,1.95
2018-03-20T03:38:26.345Z,1.67
2018-03-20T03:40:53.772Z,1.70
2018-03-20T03:43:21.238Z,1.10
2018-03-20T03:45:48.841Z,2.00
2018-03-20T03:48:16.266Z,1.60
2018-03-20T03:50:43.762Z,1.23
2018-03-20T03:53:11.306Z,0.98
2018-03-20T03:55:38.721Z,1.20
2018-03-20T03:58:06.149Z,1.20
2018-03-20T04:00:33.709Z,1.08
2018-03-20T04:03:01.135Z,1.30
2018-03-20T04:05:28.642Z,1.10
2018-03-20T04:07:56.197Z,1.30
2018-03-20T04:10:23.666Z,1.10
2018-03-20T04:12:51.087Z,1.20
2018-03-20T04:15:18.621Z,1.40
2018-03-20T04:17:46.038Z,1.10
2018-03-20T04:20:13.457Z,1.65
2018-03-20T04:22:41.078Z,1.17
2018-03-20T04:25:08.547Z,1.30
2018-03-20T04:27:35.981Z,1.40
2018-03-20T04:30:03.574Z,1.45
2018-03-20T04:32:30.994Z,1.33
2018-03-20T04:34:58.490Z,1.30
2018-03-20T04:37:26.061Z,1.00
2018-03-20T04:39:53.473Z,1.00
2018-03-20T04:42:20.981Z,1.10
2018-03-20T04:44:48.550Z,0.90
2018-03-20T04:47:15.965Z,1.30
2018-03-20T04:49:43.469Z,1.20
2018-03-20T04:52:11.034Z,1.20
2018-03-20T04:54:38.453Z,1.47
2018-03-20T04:57:05.865Z,1.53
2018-03-20T04:59:33.421Z,0.85
2018-03-20T05:02:01.062Z,1.27
2018-03-20T05:04:28.809Z,1.25
2018-03-20T05:06:56.477Z,1.02
2018-03-20T05:09:23.982Z,1.15
2018-03-20T05:11:51.450Z,1.80
2018-03-20T05:14:19.004Z,0.80
2018-03-20T05:16:46.430Z,2.60
2018-03-20T05:22:38.818Z,1.30
2018-03-20T05:25:06.375Z,1.60
2018-03-20T05:27:33.803Z,1.30
2018-03-20T05:30:01.220Z,1.57
2018-03-20T05:32:28.836Z,9.30
2018-03-20T05:34:56.258Z,9.70
2018-03-20T05:37:23.674Z,5.28
2018-03-20T05:39:51.250Z,9.93
2018-03-20T05:42:18.665Z,6.62
2018-03-20T05:44:46.094Z,11.25
2018-03-20T05:47:28.580Z,17.17
2018-03-20T05:50:11.676Z,16.20
2018-03-20T05:52:39.258Z,12.90
2018-03-20T05:55:06.677Z,14.70
2018-03-20T05:57:34.189Z,15.25
2018-03-20T06:00:01.750Z,12.82
2018-03-20T06:02:29.212Z,12.20
2018-03-20T06:04:56.660Z,11.70
2018-03-20T06:07:24.338Z,10.30
2018-03-20T06:09:51.801Z,9.43
2018-03-20T06:12:19.257Z,8.07
2018-03-20T06:14:46.825Z,9.03
2018-03-20T06:17:14.294Z,11.13
2018-03-20T06:19:41.705Z,8.55
2018-03-20T06:22:09.322Z,10.38
2018-03-20T06:24:36.745Z,6.53
2018-03-20T06:27:04.181Z,6.72
2018-03-20T06:29:31.705Z,5.87
2018-03-20T06:31:59.126Z,8.00
2018-03-20T06:34:26.621Z,8.00
2018-03-20T06:36:54.188Z,4.70
2018-03-20T06:39:21.654Z,6.33
2018-03-20T06:41:49.213Z,8.48
2018-03-20T06:44:16.682Z,3.97
2018-03-20T06:46:44.096Z,5.30
2018-03-20T06:49:11.629Z,5.10
2018-03-20T06:51:39.065Z,5.30
2018-03-20T06:54:06.486Z,5.07
2018-03-20T06:56:34.094Z,7.73
2018-03-20T06:59:01.568Z,2.53
2018-03-20T07:01:28.964Z,4.57
2018-03-20T07:03:56.417Z,4.30
2018-03-20T07:06:23.838Z,5.90
2018-03-20T07:08:51.306Z,2.57
2018-03-20T07:11:18.854Z,6.47
2018-03-20T07:13:46.330Z,3.37
2018-03-20T07:16:13.868Z,2.97
2018-03-20T07:18:41.354Z,3.22
2018-03-20T07:21:08.819Z,3.62
2018-03-20T07:23:36.277Z,2.23
2018-03-20T07:26:03.897Z,2.10
2018-03-20T07:28:31.347Z,2.60
2018-03-20T07:30:58.770Z,2.78
2018-03-20T07:33:26.329Z,3.58
2018-03-20T07:35:54.006Z,2.40
2018-03-20T07:38:21.462Z,2.37
2018-03-20T07:40:49.030Z,2.58
2018-03-20T07:43:16.486Z,2.73
2018-03-20T07:45:43.911Z,1.57
2018-03-20T07:48:11.513Z,3.47
2018-03-20T07:50:38.934Z,2.30
2018-03-20T07:53:06.442Z,2.40
2018-03-20T07:55:33.893Z,1.20
2018-03-20T07:58:01.366Z,3.37
2018-03-20T08:00:28.821Z,3.30
2018-03-20T08:02:56.494Z,1.98
2018-03-20T08:05:23.908Z,3.90
2018-03-20T08:07:51.469Z,2.13
2018-03-20T08:10:19.086Z,2.03
2018-03-20T08:12:46.546Z,3.55
2018-03-20T08:15:13.966Z,2.72
2018-03-20T08:17:41.573Z,2.97
2018-03-20T08:20:08.994Z,1.80
2018-03-20T08:22:36.498Z,5.32
2018-03-20T08:25:04.062Z,3.08
2018-03-20T08:27:31.477Z,4.05
2018-03-20T08:29:58.962Z,4.32
2018-03-20T08:32:26.526Z,4.07
2018-03-20T08:34:54.023Z,3.22
2018-03-20T08:37:21.441Z,2.30
2018-03-20T08:39:48.941Z,2.58
2018-03-20T08:42:16.358Z,1.85
2018-03-20T08:44:43.787Z,3.05
2018-03-20T08:47:11.424Z,1.62
2018-03-20T08:49:38.834Z,2.47
2018-03-20T08:52:06.260Z,5.90
2018-03-20T08:54:33.799Z,1.83
2018-03-20T08:57:01.222Z,5.93
2018-03-20T08:59:28.637Z,2.62
2018-03-20T09:01:56.199Z,3.23
2018-03-20T09:04:23.661Z,1.77
2018-03-20T09:06:51.076Z,2.45
2018-03-20T09:09:18.685Z,4.62
2018-03-20T09:11:46.110Z,6.27
2018-03-20T09:14:13.535Z,2.80
2018-03-20T09:16:41.177Z,2.62
2018-03-20T09:19:08.594Z,4.00
2018-03-20T09:21:36.102Z,2.67
2018-03-20T09:24:03.664Z,4.78
2018-03-20T09:26:31.085Z,3.45
2018-03-20T09:28:58.502Z,4.10
2018-03-20T09:31:26.058Z,1.08
2018-03-20T09:33:53.483Z,7.63
2018-03-20T09:36:20.973Z,4.32
2018-03-20T09:38:48.624Z,2.45
2018-03-20T09:41:16.037Z,2.72
2018-03-20T09:43:43.464Z,2.57
2018-03-20T09:46:11.233Z,2.17
2018-03-20T09:48:38.653Z,1.00
2018-03-20T09:51:06.070Z,2.93
2018-03-20T09:53:33.617Z,3.92
2018-03-20T09:56:01.041Z,4.78
2018-03-20T09:58:28.551Z,2.10
2018-03-20T10:00:56.017Z,2.25
2018-03-20T10:03:23.469Z,3.60
2018-03-20T10:05:50.890Z,2.85
2018-03-20T10:08:18.497Z,2.78
2018-03-20T10:10:45.957Z,0.82
2018-03-20T10:13:13.387Z,1.12
2018-03-20T10:15:40.989Z,1.93
2018-03-20T10:18:08.452Z,2.05
2018-03-20T10:20:35.865Z,1.80
2018-03-20T10:23:03.478Z,3.08
2018-03-20T10:25:30.894Z,3.50
2018-03-20T10:27:58.398Z,4.37
2018-03-20T10:30:26.071Z,3.05
2018-03-20T10:32:53.534Z,2.90
2018-03-20T10:35:20.996Z,2.53
2018-03-20T10:37:48.551Z,1.75
2018-03-20T10:40:15.966Z,1.50
2018-03-20T10:42:43.473Z,1.83
2018-03-20T10:45:11.037Z,3.00
2018-03-20T10:47:38.462Z,2.72
2018-03-20T10:50:05.877Z,4.75
2018-03-20T10:52:33.437Z,3.73
2018-03-20T10:55:00.860Z,9.20
2018-03-20T10:57:28.282Z,12.00
2018-03-20T10:59:55.919Z,7.85
2018-03-20T11:02:28.857Z,10.18
2018-03-20T11:04:56.473Z,4.22
2018-03-20T11:07:23.936Z,6.87
2018-03-20T11:09:51.446Z,3.72
2018-03-20T11:12:19.089Z,4.47
2018-03-20T11:14:46.522Z,3.87
2018-03-20T11:17:13.946Z,4.32
2018-03-20T11:19:41.421Z,3.60
2018-03-20T11:22:08.839Z,4.12
2018-03-20T11:24:36.276Z,2.10
2018-03-20T11:27:03.829Z,1.77
2018-03-20T11:29:31.298Z,2.30
2018-03-20T11:31:58.721Z,2.80
2018-03-20T11:34:26.320Z,3.55
2018-03-20T11:36:53.746Z,2.20
2018-03-20T11:39:21.161Z,3.05
2018-03-20T11:41:48.710Z,3.17
2018-03-20T11:44:16.129Z,2.95
2018-03-20T11:46:43.551Z,3.85
2018-03-20T11:49:11.202Z,4.22
2018-03-20T11:51:38.661Z,3.13
2018-03-20T11:54:06.082Z,1.90
2018-03-20T11:56:33.681Z,2.95
2018-03-20T11:59:01.146Z,2.03
2018-03-20T12:01:28.608Z,2.10
2018-03-20T12:03:56.171Z,3.40
2018-03-20T12:06:23.638Z,4.20
2018-03-20T12:08:51.917Z,2.50
2018-03-20T12:11:19.490Z,2.10
2018-03-20T12:13:46.904Z,2.05
2018-03-20T12:16:14.410Z,1.17
2018-03-20T12:18:41.969Z,2.83
2018-03-20T12:21:09.434Z,2.50
2018-03-20T12:23:36.893Z,2.35
2018-03-20T12:26:04.372Z,2.80
2018-03-20T12:28:31.791Z,1.55
2018-03-20T12:30:59.285Z,2.15
2018-03-20T12:33:26.851Z,3.22
2018-03-20T12:35:54.308Z,4.45
2018-03-20T12:38:21.734Z,1.80
2018-03-20T12:40:49.273Z,2.62
2018-03-20T12:43:16.693Z,2.53
2018-03-20T12:45:44.262Z,2.47
2018-03-20T12:48:11.826Z,1.92
2018-03-20T12:50:39.245Z,2.47
2018-03-20T12:53:06.745Z,2.47
2018-03-20T12:55:34.320Z,1.77
2018-03-20T12:58:01.786Z,1.50
2018-03-20T13:00:29.201Z,3.60
2018-03-20T13:02:56.657Z,2.80
2018-03-20T13:05:24.178Z,0.85
2018-03-20T13:07:51.598Z,2.58
2018-03-20T13:10:19.190Z,1.50
2018-03-20T13:12:46.753Z,2.28
2018-03-20T13:15:14.209Z,2.37
2018-03-20T13:17:41.676Z,1.30
2018-03-20T13:20:09.238Z,1.95
2018-03-20T13:22:36.658Z,3.55
2018-03-20T13:25:04.135Z,3.83
2018-03-20T13:27:31.697Z,1.45
2018-03-20T13:29:59.203Z,1.92
2018-03-20T13:32:26.617Z,2.58
2018-03-20T13:34:54.218Z,13.88
2018-03-20T13:37:21.641Z,6.87
2018-03-20T13:39:49.062Z,3.83
2018-03-20T13:42:16.710Z,3.15
2018-03-20T13:44:44.129Z,6.80
2018-03-20T13:47:11.551Z,4.70
2018-03-20T13:49:39.198Z,5.78
2018-03-20T13:52:06.670Z,3.60
2018-03-20T13:54:34.125Z,4.50
2018-03-20T13:57:01.581Z,3.60
2018-03-20T13:59:29.042Z,3.75
2018-03-20T14:01:56.466Z,4.35
2018-03-20T14:04:24.893Z,5.82
2018-03-20T14:06:52.312Z,4.95
2018-03-20T14:09:19.733Z,5.00
2018-03-20T14:11:47.458Z,7.62
2018-03-20T14:14:14.944Z,6.70
2018-03-20T14:16:42.403Z,6.72
2018-03-20T14:19:09.896Z,6.85
2018-03-20T14:21:37.393Z,4.62
2018-03-20T14:24:04.993Z,5.32
2018-03-20T14:26:32.458Z,7.12
2018-03-20T14:28:59.922Z,7.32
2018-03-20T14:31:27.481Z,5.35
2018-03-20T14:33:54.958Z,3.60
2018-03-20T14:36:22.405Z,6.07
2018-03-20T14:38:49.986Z,4.43
2018-03-20T14:41:17.657Z,4.28
2018-03-20T14:43:45.822Z,4.15
2018-03-20T14:46:13.381Z,5.78
2018-03-20T14:48:40.850Z,5.28
2018-03-20T14:51:08.273Z,7.90
2018-03-20T14:53:41.932Z,4.03
2018-03-20T14:56:10.078Z,3.22
2018-03-20T14:58:37.508Z,4.93
2018-03-20T15:01:04.961Z,3.53
2018-03-20T15:03:32.386Z,4.60
2018-03-20T15:05:59.924Z,4.55
2018-03-20T15:08:27.469Z,4.82
2018-03-20T15:10:54.890Z,4.00
2018-03-20T15:13:22.784Z,3.75
2018-03-20T15:15:50.266Z,5.60
2018-03-20T15:18:17.767Z,7.55
2018-03-20T15:20:45.231Z,4.15
2018-03-20T15:23:12.792Z,2.87
2018-03-20T15:25:40.212Z,4.15
2018-03-20T15:28:07.718Z,2.95
2018-03-20T15:30:35.259Z,9.48
2018-03-20T15:33:02.751Z,3.15
2018-03-20T15:35:30.202Z,3.53
2018-03-20T15:37:57.778Z,4.20
2018-03-20T15:40:25.230Z,2.75
2018-03-20T15:42:52.690Z,4.57
2018-03-20T15:45:20.254Z,2.78
2018-03-20T15:47:47.798Z,2.03
2018-03-20T15:50:15.281Z,1.85
2018-03-20T15:52:42.846Z,4.07
2018-03-20T15:55:10.274Z,1.95
2018-03-20T15:57:37.694Z,4.10
2018-03-20T16:00:05.240Z,3.37
2018-03-20T16:02:32.666Z,4.82
2018-03-20T16:05:00.158Z,7.03
2018-03-20T16:07:27.719Z,5.05
2018-03-20T16:09:55.133Z,5.15
2018-03-20T16:12:22.554Z,4.65
2018-03-20T16:14:50.109Z,4.47
2018-03-20T16:17:17.534Z,3.67
2018-03-20T16:19:45.035Z,2.92
2018-03-20T16:22:12.599Z,2.80
2018-03-20T16:24:40.063Z,4.15
2018-03-20T16:27:07.524Z,3.15
2018-03-20T16:29:35.086Z,2.28
2018-03-20T16:32:02.514Z,4.70
2018-03-20T16:34:29.926Z,4.70
2018-03-20T16:36:57.552Z,8.02
2018-03-20T16:39:24.998Z,5.90
2018-03-20T16:41:52.409Z,5.68
2018-03-20T16:44:19.957Z,8.50
2018-03-20T16:46:47.382Z,4.68
2018-03-20T16:49:14.806Z,8.13
2018-03-20T16:51:42.453Z,8.45
2018-03-20T16:54:09.878Z,4.20
2018-03-20T16:56:37.368Z,6.45
2018-03-20T16:59:04.942Z,5.95
2018-03-20T17:01:32.361Z,5.70
2018-03-20T17:03:59.783Z,3.72
2018-03-20T17:06:27.425Z,4.12
2018-03-20T17:08:54.890Z,4.40
2018-03-20T17:11:22.349Z,5.10
2018-03-20T17:13:49.922Z,4.32
2018-03-20T17:16:17.361Z,4.18
2018-03-20T17:18:44.841Z,7.32
2018-03-20T17:21:12.307Z,3.58
2018-03-20T17:23:39.726Z,5.18
2018-03-20T17:26:07.137Z,3.72
2018-03-20T17:28:34.689Z,4.37
2018-03-20T17:31:02.131Z,4.25
2018-03-20T17:33:29.544Z,4.68
2018-03-20T17:35:57.180Z,7.03
2018-03-20T17:38:24.593Z,3.42
2018-03-20T17:40:52.018Z,2.55
2018-03-20T17:43:19.638Z,4.22
2018-03-20T17:45:47.125Z,3.05
2018-03-20T17:48:14.550Z,3.12
2018-03-20T17:50:42.153Z,4.45
2018-03-20T17:53:09.580Z,4.07
2018-03-20T17:55:36.993Z,3.47
2018-03-20T17:58:04.646Z,4.47
2018-03-20T18:00:32.065Z,2.22
2018-03-20T18:02:59.502Z,4.60
2018-03-20T18:05:27.076Z,1.98
2018-03-20T18:07:54.500Z,2.72
2018-03-20T18:10:22.166Z,3.03
2018-03-20T18:12:49.586Z,2.30
2018-03-20T18:15:17.003Z,5.32
2018-03-20T18:17:44.550Z,2.95
2018-03-20T18:20:12.019Z,2.37
2018-03-20T18:22:39.442Z,2.78
2018-03-20T18:25:07.032Z,2.20
2018-03-20T18:27:34.524Z,2.42
2018-03-20T18:30:01.962Z,2.67
2018-03-20T18:32:29.496Z,2.60
2018-03-20T18:34:56.989Z,3.15
2018-03-20T18:37:24.405Z,2.70
2018-03-20T18:39:52.052Z,2.03
2018-03-20T18:42:19.586Z,2.20
2018-03-20T18:44:47.001Z,1.60
2018-03-20T18:47:14.422Z,2.50
2018-03-20T18:49:42.081Z,3.90
2018-03-20T18:52:09.531Z,1.98
2018-03-20T18:54:36.932Z,3.95
2018-03-20T18:57:04.558Z,1.35
2018-03-20T18:59:32.017Z,2.20
2018-03-20T19:01:59.438Z,2.97
2018-03-20T19:04:26.927Z,4.15
2018-03-20T19:06:54.406Z,2.95
2018-03-20T19:09:21.821Z,3.17
2018-03-20T19:11:49.430Z,3.30
2018-03-20T19:14:16.858Z,2.37
2018-03-20T19:16:44.357Z,3.30
2018-03-20T19:19:11.821Z,2.87
2018-03-20T19:21:39.278Z,2.28
2018-03-20T19:24:06.846Z,7.18
2018-03-20T19:26:34.261Z,4.45
2018-03-20T19:29:01.770Z,4.03
2018-03-20T19:31:29.334Z,5.20
2018-03-20T19:33:56.758Z,3.53
2018-03-20T19:36:24.182Z,5.12
2018-03-20T19:38:51.730Z,3.53
2018-03-20T19:41:19.182Z,4.20
2018-03-20T19:43:46.645Z,3.35
2018-03-20T19:46:14.088Z,4.78
2018-03-20T19:48:41.512Z,7.35
2018-03-20T19:51:08.930Z,5.72
2018-03-20T19:53:36.386Z,5.45
2018-03-20T19:56:03.823Z,6.10
2018-03-20T19:58:31.242Z,4.55
2018-03-20T20:00:58.700Z,5.57
2018-03-20T20:03:26.145Z,6.25
2018-03-20T20:05:53.565Z,6.32
2018-03-20T20:08:21.062Z,4.57
2018-03-20T20:10:48.526Z,5.25
2018-03-20T20:13:15.992Z,7.10
2018-03-20T20:15:43.525Z,5.18
2018-03-20T20:18:10.941Z,7.05
2018-03-20T20:20:38.369Z,3.10
2018-03-20T20:23:05.866Z,4.18
2018-03-20T20:25:33.351Z,5.15
2018-03-20T20:28:00.742Z,3.75
2018-03-20T20:30:28.326Z,4.07
2018-03-20T20:32:55.780Z,3.12
2018-03-20T20:35:23.206Z,2.10
2018-03-20T20:37:50.689Z,2.80
2018-03-20T20:40:18.177Z,3.33
2018-03-20T20:42:45.678Z,2.65
2018-03-20T20:45:13.110Z,2.53
2018-03-20T20:47:40.542Z,3.10
2018-03-20T20:50:08.017Z,2.25
2018-03-20T20:52:35.587Z,4.30
2018-03-20T20:55:03.006Z,2.95
2018-03-20T20:57:30.525Z,2.42
2018-03-20T20:59:58.069Z,3.70
2018-03-20T21:02:25.541Z,2.87
2018-03-20T21:04:52.957Z,1.92
2018-03-20T21:07:20.413Z,2.95
2018-03-20T21:09:47.830Z,1.75
2018-03-20T21:12:15.281Z,2.75
2018-03-20T21:14:42.851Z,3.62
2018-03-20T21:17:10.273Z,2.47
2018-03-20T21:19:37.695Z,2.92
2018-03-20T21:22:05.350Z,3.22
2018-03-20T21:24:32.780Z,1.67
2018-03-20T21:27:00.216Z,2.70
2018-03-20T21:29:27.642Z,1.92
2018-03-20T21:31:55.062Z,1.83
2018-03-20T21:34:22.650Z,2.78
2018-03-20T21:36:50.070Z,3.20
2018-03-20T21:39:17.578Z,1.40
2018-03-20T21:41:45.138Z,2.10
2018-03-20T21:44:12.602Z,2.83
2018-03-20T21:46:40.031Z,1.93
2018-03-20T21:49:07.614Z,1.90
2018-03-20T21:51:35.033Z,1.80
2018-03-20T21:54:02.504Z,2.80
2018-03-20T21:56:30.009Z,1.62
2018-03-20T21:58:57.478Z,1.35
2018-03-20T22:01:24.897Z,1.45
2018-03-20T22:03:52.403Z,1.70
2018-03-20T22:06:19.817Z,1.10
2018-03-20T22:08:47.249Z,1.48
2018-03-20T22:11:14.790Z,1.75
2018-03-20T22:13:42.249Z,1.95
2018-03-20T22:16:09.670Z,2.90
2018-03-20T22:18:37.276Z,2.08
2018-03-20T22:21:04.698Z,1.20
2018-03-20T22:23:32.119Z,1.60
2018-03-20T22:25:59.758Z,2.55
2018-03-20T22:28:27.221Z,3.33
2018-03-20T22:30:54.646Z,1.55
2018-03-20T22:33:22.254Z,1.83
2018-03-20T22:35:49.719Z,2.03
2018-03-20T22:38:17.142Z,3.92
2018-03-20T22:40:44.597Z,2.55
2018-03-20T22:43:12.101Z,2.50
2018-03-20T22:45:39.557Z,2.20
2018-03-20T22:48:07.037Z,1.98
2018-03-20T22:50:34.458Z,1.62
2018-03-20T22:53:01.990Z,2.15
2018-03-20T22:55:29.518Z,1.87
2018-03-20T22:57:56.937Z,2.17
2018-03-20T23:00:30.229Z,1.80
2018-03-20T23:02:57.657Z,1.80
2018-03-20T23:05:25.138Z,1.73
2018-03-20T23:07:52.574Z,2.25
2018-03-20T23:10:19.996Z,4.85
2018-03-20T23:12:47.413Z,1.73
2018-03-20T23:15:14.990Z,1.62
2018-03-20T23:17:42.410Z,1.67
2018-03-20T23:20:09.830Z,1.30
2018-03-20T23:22:37.430Z,1.83
2018-03-20T23:25:04.894Z,1.70
2018-03-20T23:27:32.314Z,1.80
2018-03-20T23:29:59.767Z,1.37
2018-03-20T23:32:27.192Z,3.33
2018-03-20T23:34:54.626Z,1.23
2018-03-20T23:37:22.209Z,2.37
2018-03-20T23:39:49.673Z,2.08
2018-03-20T23:42:17.089Z,1.40
2018-03-20T23:44:44.694Z,1.25
2018-03-20T23:47:12.114Z,1.40
2018-03-20T23:49:39.540Z,1.12
2018-03-20T23:52:07.073Z,1.65
2018-03-20T23:54:34.547Z,1.50
2018-03-20T23:57:02.002Z,1.73
2018-03-20T23:59:29.571Z,1.65
